Time;durP1;ratioP1;P1;durP2;ratioP2;P2;SDS_P1;SDS_P2;PMS_P1;PMS_P2;Temp;Humidity;BMP_temperature;BMP_pressure;BME280_temperature;BME280_humidity;BME280_pressure;Samples;Min_cycle;Max_cycle;Signal;HPM_P1;HPM_P2
2022/06/23 04:33:47;;;;;;;11.30;3.03;;;24.80;61.60;;;;;;7412764;19;20013;-82
2022/06/23 04:36:23;;;;;;;148.70;126.18;;;24.70;61.40;;;;;;7375864;19;20081;-81
2022/06/23 04:38:56;;;;;;;40.85;24.20;;;24.70;61.90;;;;;;7374697;19;20027;-81
2022/06/23 04:41:31;;;;;;;15.30;4.03;;;24.70;61.90;;;;;;7373448;19;20021;-80
2022/06/23 04:44:05;;;;;;;15.38;3.33;;;24.70;61.90;;;;;;7375811;19;20072;-81
2022/06/23 04:46:40;;;;;;;9.65;2.58;;;24.80;61.90;;;;;;7374954;19;20022;-78
2022/06/23 04:49:22;;;;;;;12.85;2.92;;;24.80;62.20;;;;;;7395799;19;20300;-81
2022/06/23 04:52:23;;;;;;;11.68;3.10;;;24.80;61.90;;;;;;7375751;19;20608;-81
2022/06/23 04:55:04;;;;;;;15.27;2.67;;;24.90;61.70;;;;;;7373753;19;20045;-79
2022/06/23 04:57:42;;;;;;;23.03;2.73;;;24.90;61.60;;;;;;7373771;19;20041;-78
2022/06/23 05:00:24;;;;;;;11.50;2.75;;;24.90;61.50;;;;;;7372286;19;20030;-78
2022/06/23 05:02:57;;;;;;;11.70;3.42;;;24.80;61.60;;;;;;7374819;19;20022;-79
2022/06/23 05:05:35;;;;;;;10.27;3.00;;;24.80;61.30;;;;;;7371816;19;20096;-75
2022/06/23 05:08:07;;;;;;;48.63;32.85;;;24.60;61.30;;;;;;7373567;19;20018;-79
2022/06/23 05:10:44;;;;;;;21.08;5.40;;;24.60;61.70;;;;;;7332119;19;20463;-78
2022/06/23 05:13:22;;;;;;;16.40;3.30;;;24.60;61.90;;;;;;7395938;19;20023;-78
2022/06/23 05:15:59;;;;;;;19.58;4.40;;;24.50;61.70;;;;;;7373462;19;20053;-78
2022/06/23 05:18:33;;;;;;;13.52;3.67;;;24.40;61.90;;;;;;7373177;19;20014;-77
2022/06/23 05:21:09;;;;;;;11.00;3.05;;;24.40;61.70;;;;;;7370929;19;20018;-78
2022/06/23 05:24:34;;;;;;;80.00;66.15;;;24.40;61.60;;;;;;7366052;19;20385;-80
2022/06/23 05:27:11;;;;;;;10.38;3.83;;;24.30;60.90;;;;;;7374396;19;20015;-84
2022/06/23 05:50:40;;;;;;;17.88;3.60;;;24.40;60.40;;;;;;7354701;19;20018;-84
2022/06/23 05:53:53;;;;;;;17.00;3.92;;;24.50;60.50;;;;;;7371823;19;20015;-84
2022/06/23 07:27:58;;;;;;;21.25;6.20;;;24.80;58.50;;;;;;7411083;19;20030;-82
2022/06/23 07:30:30;;;;;;;9.80;3.58;;;24.90;57.80;;;;;;7434239;19;20018;-82
2022/06/23 07:33:04;;;;;;;16.58;3.67;;;25.00;57.70;;;;;;7412480;19;20041;-83
2022/06/23 07:35:38;;;;;;;13.07;4.25;;;25.10;57.40;;;;;;7390901;19;20121;-84
2022/06/23 07:38:13;;;;;;;15.05;3.90;;;25.00;56.90;;;;;;7384978;19;20035;-83
2022/06/23 07:40:46;;;;;;;14.27;3.58;;;25.00;57.00;;;;;;7385948;19;20019;-83
2022/06/23 07:43:23;;;;;;;10.77;4.50;;;25.10;57.00;;;;;;7403733;19;20019;-83
2022/06/23 07:45:55;;;;;;;11.38;3.83;;;25.10;57.20;;;;;;7381462;19;20038;-84
2022/06/23 07:48:25;;;;;;;11.80;3.58;;;25.20;57.30;;;;;;7383219;19;20019;-83
2022/06/23 07:50:54;;;;;;;12.18;4.10;;;25.20;56.70;;;;;;7383988;19;20034;-84
2022/06/23 07:53:28;;;;;;;10.32;3.60;;;25.00;57.10;;;;;;7385406;19;20046;-82
2022/06/23 07:55:58;;;;;;;13.48;3.80;;;25.00;56.60;;;;;;7384864;19;20840;-84
2022/06/23 07:58:31;;;;;;;12.52;4.35;;;24.90;56.80;;;;;;7383564;19;20038;-83
2022/06/23 08:01:07;;;;;;;7.75;3.70;;;24.80;57.10;;;;;;7408917;19;20129;-84
2022/06/23 08:03:42;;;;;;;9.60;3.92;;;24.90;57.30;;;;;;7387579;19;20030;-84
2022/06/23 08:06:17;;;;;;;13.40;3.78;;;24.90;57.30;;;;;;7383807;19;20119;-84
2022/06/23 08:08:48;;;;;;;10.40;3.75;;;25.10;57.20;;;;;;7381598;19;20006;-83
2022/06/23 08:14:10;;;;;;;10.60;3.78;;;25.20;56.60;;;;;;7382291;19;20014;-83
2022/06/23 08:16:49;;;;;;;9.05;3.75;;;25.30;56.30;;;;;;7376747;19;20027;-84
2022/06/23 08:19:29;;;;;;;9.50;3.88;;;25.30;55.90;;;;;;7402460;19;20038;-84
2022/06/23 08:22:05;;;;;;;7.82;3.60;;;25.40;55.90;;;;;;7381230;19;20011;-83
2022/06/23 08:24:36;;;;;;;13.75;3.67;;;25.40;55.60;;;;;;7379072;19;20014;-83
2022/06/23 08:27:08;;;;;;;9.98;3.38;;;25.50;55.20;;;;;;7383878;19;20015;-84
2022/06/23 08:29:44;;;;;;;5.60;3.40;;;25.50;55.50;;;;;;7380714;19;20019;-83
2022/06/23 08:32:14;;;;;;;7.63;2.88;;;25.60;55.40;;;;;;7382334;19;20006;-83
2022/06/23 08:34:49;;;;;;;8.13;3.45;;;25.60;55.00;;;;;;7380381;19;20881;-83
2022/06/23 08:37:21;;;;;;;9.43;3.20;;;25.60;55.10;;;;;;7398190;19;20107;-82
2022/06/23 08:39:58;;;;;;;8.05;3.10;;;25.70;54.90;;;;;;7377783;19;20071;-84
2022/06/23 08:42:36;;;;;;;12.02;3.42;;;25.80;55.20;;;;;;7376830;19;20030;-85
2022/06/23 08:45:17;;;;;;;10.40;3.15;;;25.90;54.80;;;;;;7376091;19;20032;-83
2022/06/23 08:47:55;;;;;;;8.23;3.13;;;25.90;54.60;;;;;;7374450;19;20089;-84
2022/06/23 08:50:33;;;;;;;8.98;3.30;;;26.00;54.80;;;;;;7374886;19;20018;-84
2022/06/23 08:53:04;;;;;;;7.95;3.08;;;26.10;54.50;;;;;;7375725;19;20292;-83
2022/06/23 08:55:41;;;;;;;10.65;3.40;;;26.00;53.60;;;;;;7375477;19;20774;-84
2022/06/23 08:58:17;;;;;;;3.83;3.03;;;26.00;54.00;;;;;;7399937;19;20059;-84
2022/06/23 09:00:56;;;;;;;7.80;3.28;;;25.90;54.20;;;;;;7376950;19;20022;-83
2022/06/23 09:03:32;;;;;;;9.20;3.40;;;25.90;54.70;;;;;;7376829;19;20018;-84
2022/06/23 09:06:08;;;;;;;7.85;3.53;;;25.80;54.20;;;;;;7376345;19;20022;-84
2022/06/23 09:08:43;;;;;;;7.40;3.40;;;25.80;54.40;;;;;;7377426;19;20045;-84
2022/06/23 09:11:23;;;;;;;10.48;3.10;;;25.80;54.50;;;;;;7375985;19;20014;-83
2022/06/23 09:14:08;;;;;;;3.92;3.30;;;25.80;54.30;;;;;;7377093;19;20011;-84
2022/06/23 09:16:56;;;;;;;4.38;3.10;;;25.80;54.50;;;;;;7376694;19;20022;-84
2022/06/23 09:19:51;;;;;;;14.45;3.28;;;25.80;54.80;;;;;;7380220;19;20043;-85
2022/06/23 09:22:49;;;;;;;9.55;3.30;;;25.80;54.80;;;;;;7401184;19;20018;-84
2022/06/23 09:25:25;;;;;;;9.65;3.42;;;25.90;54.80;;;;;;7369034;19;20110;-83
2022/06/23 09:28:16;;;;;;;9.55;3.35;;;25.90;55.00;;;;;;7375554;19;20029;-84
2022/06/23 09:30:50;;;;;;;;;;;25.90;55.10;;;;;;7376940;19;20438;-84
2022/06/23 09:33:39;;;;;;;8.77;3.85;;;26.00;54.90;;;;;;7377118;19;19918;-84
2022/06/23 09:36:42;;;;;;;5.80;3.60;;;25.80;55.10;;;;;;7375463;19;20102;-84
2022/06/23 09:39:34;;;;;;;6.63;4.03;;;25.70;54.70;;;;;;7374725;19;20031;-84
2022/06/23 09:42:36;;;;;;;7.85;3.65;;;25.70;55.30;;;;;;7374341;19;20011;-84
2022/06/23 09:45:40;;;;;;;15.35;3.67;;;25.60;55.50;;;;;;7376850;19;20077;-86
2022/06/23 09:48:37;;;;;;;9.85;3.58;;;25.50;55.40;;;;;;7376913;19;20660;-84
2022/06/23 09:51:29;;;;;;;5.05;3.33;;;25.30;55.60;;;;;;7374489;19;20018;-84
2022/06/23 09:54:17;;;;;;;14.05;3.83;;;25.40;55.80;;;;;;7377113;19;20450;-85
2022/06/23 09:57:14;;;;;;;7.00;3.38;;;25.40;55.20;;;;;;7375058;19;20006;-84
2022/06/23 09:59:59;;;;;;;7.90;3.47;;;25.30;55.80;;;;;;7376800;19;20031;-83
2022/06/23 10:02:42;;;;;;;10.13;3.50;;;25.50;55.90;;;;;;7375036;19;20019;-81
2022/06/23 10:05:26;;;;;;;10.30;3.15;;;25.60;56.60;;;;;;7374184;19;20015;-84
2022/06/23 10:08:20;;;;;;;5.55;2.75;;;25.80;55.00;;;;;;7375387;19;20026;-85
2022/06/23 10:11:16;;;;;;;7.60;2.75;;;25.90;53.60;;;;;;7375632;19;20014;-84
2022/06/23 10:14:10;;;;;;;7.72;3.33;;;26.10;53.70;;;;;;7376434;19;20026;-85
2022/06/23 10:16:53;;;;;;;7.63;3.10;;;26.30;53.60;;;;;;7379545;19;20833;-84
2022/06/23 10:19:54;;;;;;;6.85;2.90;;;26.40;53.40;;;;;;7405332;19;20033;-84
2022/06/23 10:22:44;;;;;;;4.13;2.80;;;26.60;54.00;;;;;;7282744;19;2004403;-85
2022/06/23 10:25:51;;;;;;;;;;;;;;;;;;;;;
2022/06/23 10:29:07;;;;;;;197.10;147.00;;;26.90;51.60;;;;;;7222591;19;2004389;-84
2022/06/23 10:31:51;;;;;;;7.03;4.03;;;27.10;51.50;;;;;;7373306;19;20090;-85
2022/06/23 10:34:40;;;;;;;6.18;3.72;;;27.10;50.40;;;;;;7396208;19;20006;-84
2022/06/23 10:37:50;;;;;;;7.32;3.20;;;27.20;50.60;;;;;;7374526;19;20010;-83
2022/06/23 10:40:43;;;;;;;4.28;2.75;;;27.20;50.30;;;;;;7280903;19;2004509;-86
2022/06/23 10:43:56;;;;;;;7.93;2.90;;;27.30;51.30;;;;;;7406223;19;20022;-82
2022/06/23 10:46:36;;;;;;;4.85;2.70;;;27.40;50.50;;;;;;7273701;19;2004630;-85
2022/06/23 10:49:40;;;;;;;4.93;2.95;;;27.50;50.40;;;;;;7393976;19;20046;-85
2022/06/23 10:52:38;;;;;;;5.90;2.80;;;27.50;50.10;;;;;;7373352;19;20015;-79
2022/06/23 10:55:40;;;;;;;3.53;2.70;;;27.60;49.90;;;;;;7368305;19;21533;-82
2022/06/23 10:58:50;;;;;;;5.80;2.97;;;27.70;50.00;;;;;;7367957;19;20015;-81
2022/06/23 11:01:41;;;;;;;7.13;2.90;;;27.80;49.00;;;;;;7270268;19;2006568;-82
2022/06/23 11:07:59;;;;;;;4.65;2.72;;;27.80;49.50;;;;;;7346542;19;20268;-81
2022/06/23 11:46:10;;;;;;;3.38;2.33;;;28.30;47.30;;;;;;7397646;19;20082;-83
2022/06/23 11:49:22;;;;;;;137.45;101.97;;;28.30;46.90;;;;;;7381451;19;20054;-85
2022/06/23 11:52:18;;;;;;;5.10;2.75;;;28.30;47.20;;;;;;7383747;19;20018;-83
2022/06/23 11:55:10;;;;;;;5.35;2.40;;;28.30;46.90;;;;;;7381809;19;20018;-82
2022/06/23 11:58:02;;;;;;;6.72;2.40;;;28.30;46.40;;;;;;7377648;19;20044;-82
2022/06/23 12:00:42;;;;;;;3.58;2.30;;;28.40;46.60;;;;;;7376955;19;20010;-82
2022/06/23 12:03:32;;;;;;;5.05;2.28;;;28.40;46.10;;;;;;7379177;19;20032;-82
2022/06/23 12:06:25;;;;;;;6.60;2.78;;;28.40;46.50;;;;;;7376625;19;20110;-83
2022/06/23 12:12:05;;;;;;;8.30;3.10;;;28.50;46.00;;;;;;7373944;19;20038;-84
2022/06/23 12:15:05;;;;;;;3.97;2.63;;;28.60;46.20;;;;;;7375228;19;20349;-84
2022/06/23 12:18:04;;;;;;;5.50;2.50;;;28.50;45.50;;;;;;7331131;19;20018;-83
2022/06/23 12:24:31;;;;;;;5.07;2.50;;;28.60;46.10;;;;;;7376722;19;20801;-83
2022/06/23 12:27:40;;;;;;;5.35;3.00;;;28.60;46.00;;;;;;7334809;19;20074;-83
2022/06/23 12:34:18;;;;;;;5.32;3.00;;;28.50;45.90;;;;;;7378225;19;20018;-83
2022/06/23 12:40:21;;;;;;;4.35;2.50;;;28.60;46.70;;;;;;7379853;19;20011;-83
2022/06/23 12:43:05;;;;;;;9.77;2.72;;;28.60;46.50;;;;;;7381239;19;20074;-83
2022/06/23 12:46:13;;;;;;;5.78;2.60;;;28.60;46.00;;;;;;7380594;19;20055;-83
2022/06/23 12:49:22;;;;;;;9.25;2.30;;;28.60;46.60;;;;;;7379757;19;20049;-83
2022/06/23 12:52:13;;;;;;;3.03;2.28;;;28.80;45.30;;;;;;7379296;19;20090;-83
2022/06/23 12:58:33;;;;;;;5.60;2.80;;;29.00;45.50;;;;;;7375432;19;20351;-82
2022/06/23 13:01:13;;;;;;;2.97;2.22;;;29.20;45.90;;;;;;7377123;19;20011;-81
2022/06/23 13:04:10;;;;;;;4.03;2.13;;;29.20;44.50;;;;;;7377469;19;20014;-83
2022/06/23 13:06:51;;;;;;;3.88;2.00;;;29.30;43.10;;;;;;7373120;19;20086;-82
2022/06/23 13:09:31;;;;;;;6.20;2.40;;;29.20;44.00;;;;;;7379894;19;20014;-82
2022/06/23 13:12:06;;;;;;;9.25;2.40;;;29.30;44.20;;;;;;7335833;19;20006;-83
2022/06/23 13:14:46;;;;;;;7.45;2.67;;;29.40;44.00;;;;;;7377145;19;20631;-83
2022/06/23 13:17:26;;;;;;;3.38;2.38;;;29.40;43.30;;;;;;7375727;19;20007;-82
2022/06/23 13:20:09;;;;;;;5.95;2.20;;;29.40;43.00;;;;;;7376387;19;20026;-85
2022/06/23 13:23:05;;;;;;;263.15;213.75;;;29.30;43.80;;;;;;7377910;19;20046;-85
2022/06/23 13:25:37;;;;;;;3.20;2.72;;;29.20;45.20;;;;;;7376212;19;20070;-84
2022/06/23 13:28:09;;;;;;;3.97;2.50;;;29.20;44.60;;;;;;7398796;19;20316;-83
2022/06/23 13:30:46;;;;;;;4.50;2.65;;;29.30;44.80;;;;;;7377893;19;20486;-82
2022/06/23 13:33:26;;;;;;;4.90;2.60;;;29.30;43.60;;;;;;7376301;19;20434;-83
2022/06/23 13:36:02;;;;;;;4.97;2.17;;;29.30;43.60;;;;;;7376598;19;20454;-83
2022/06/23 13:38:41;;;;;;;4.50;2.28;;;29.40;43.40;;;;;;7373767;19;20742;-82
2022/06/23 13:41:16;;;;;;;3.63;1.90;;;29.60;43.60;;;;;;7374794;19;20366;-82
2022/06/23 13:43:53;;;;;;;5.78;2.38;;;29.70;42.90;;;;;;7375071;19;20078;-83
2022/06/23 13:46:32;;;;;;;6.82;2.40;;;29.80;42.60;;;;;;7396124;19;20019;-83
2022/06/23 13:49:27;;;;;;;5.80;2.20;;;29.90;41.80;;;;;;7377554;19;20014;-83
2022/06/23 13:52:02;;;;;;;7.45;2.22;;;30.00;41.70;;;;;;7378294;19;20117;-83
2022/06/23 13:54:43;;;;;;;9.77;2.05;;;29.90;41.80;;;;;;7383926;19;20007;-84
2022/06/23 13:57:24;;;;;;;7.63;2.35;;;29.80;42.00;;;;;;7390834;19;20041;-83
2022/06/23 13:59:59;;;;;;;8.38;2.20;;;29.80;42.20;;;;;;7391717;19;20189;-83
2022/06/23 14:02:41;;;;;;;5.03;2.35;;;29.80;41.80;;;;;;7383815;19;20023;-82
2022/06/23 14:05:16;;;;;;;4.28;2.13;;;29.60;42.40;;;;;;7380891;19;20018;-83
2022/06/23 14:07:54;;;;;;;6.60;2.30;;;29.70;42.90;;;;;;7376475;19;20333;-82
2022/06/23 14:10:31;;;;;;;4.40;1.83;;;29.90;42.40;;;;;;7399300;19;20031;-82
2022/06/23 14:13:05;;;;;;;5.35;2.20;;;30.10;41.40;;;;;;7377053;19;20015;-84
2022/06/23 14:15:45;;;;;;;6.32;1.98;;;30.10;42.20;;;;;;7375839;19;20086;-82
2022/06/23 14:18:41;;;;;;;5.60;2.03;;;30.10;41.40;;;;;;7376981;19;20032;-84
2022/06/23 14:21:29;;;;;;;10.65;1.95;;;30.00;41.90;;;;;;7338952;19;20042;-83
2022/06/23 14:24:07;;;;;;;3.75;2.00;;;30.00;42.50;;;;;;7375340;19;20029;-83
2022/06/23 14:27:02;;;;;;;6.97;2.20;;;30.10;42.50;;;;;;7320283;19;20027;-85
2022/06/23 14:29:44;;;;;;;6.80;2.00;;;30.20;41.50;;;;;;7394856;19;20010;-83
2022/06/23 14:32:24;;;;;;;2.53;2.00;;;30.20;40.60;;;;;;7377196;19;20025;-83
2022/06/23 14:35:09;;;;;;;6.07;2.28;;;30.10;40.90;;;;;;7378358;19;20038;-83
2022/06/23 14:37:47;;;;;;;5.47;1.92;;;30.10;41.00;;;;;;7375399;19;20022;-84
2022/06/23 14:40:20;;;;;;;6.85;1.90;;;30.00;42.20;;;;;;7403571;19;20007;-83
2022/06/23 14:43:18;;;;;;;5.07;2.00;;;29.90;41.60;;;;;;7379882;19;20344;-84
2022/06/23 14:46:01;;;;;;;3.40;1.90;;;29.80;41.60;;;;;;7379856;19;20629;-83
2022/06/23 14:49:06;;;;;;;16.52;2.22;;;29.80;41.40;;;;;;7380639;19;20446;-83
2022/06/23 14:51:45;;;;;;;4.03;2.00;;;29.80;41.80;;;;;;7382310;19;20023;-83
2022/06/23 14:54:22;;;;;;;6.45;2.20;;;29.70;42.10;;;;;;7382028;19;20029;-83
2022/06/23 14:57:05;;;;;;;2.13;1.80;;;29.90;42.40;;;;;;7382577;19;20017;-84
2022/06/23 14:59:45;;;;;;;3.15;1.70;;;30.00;41.50;;;;;;7380216;19;20027;-82
2022/06/23 15:23:16;;;;;;;3.53;1.50;;;30.40;39.70;;;;;;7280855;19;2004431;-83
2022/06/23 15:26:01;;;;;;;3.50;1.70;;;30.70;39.90;;;;;;7387815;19;20709;-86
2022/06/23 15:28:41;;;;;;;3.28;1.77;;;30.90;39.60;;;;;;7391889;19;20296;-89
2022/06/23 15:32:05;;;;;;;4.28;1.98;;;31.10;38.30;;;;;;7407153;19;20011;-85
2022/06/23 15:34:59;;;;;;;2.53;1.52;;;31.20;38.60;;;;;;7282611;19;2004480;-86
2022/06/23 15:37:40;;;;;;;3.78;1.95;;;31.50;38.10;;;;;;7384025;19;20019;-85
2022/06/23 15:40:20;;;;;;;5.13;1.92;;;31.70;37.90;;;;;;7406117;19;20038;-84
2022/06/23 15:43:02;;;;;;;3.95;1.65;;;32.20;37.90;;;;;;7382141;19;20023;-82
2022/06/23 15:45:56;;;;;;;3.65;1.63;;;32.80;36.40;;;;;;7382098;19;20048;-85
2022/06/23 15:49:19;;;;;;;9.15;1.58;;;33.10;36.10;;;;;;7383583;19;20014;-88
2022/06/23 15:52:12;;;;;;;2.20;1.60;;;33.30;35.10;;;;;;7381983;19;20029;-84
2022/06/23 16:01:40;;;;;;;1.98;1.45;;;33.40;36.00;;;;;;7274821;19;2004414;-82
2022/06/23 16:04:35;;;;;;;3.13;1.60;;;33.50;35.10;;;;;;7399178;19;20025;-82
2022/06/23 16:11:14;;;;;;;4.03;1.40;;;34.00;35.90;;;;;;7374281;19;20019;-83
2022/06/23 16:25:01;;;;;;;5.40;1.92;;;33.90;34.30;;;;;;7380646;19;20359;-84
2022/06/23 16:38:27;;;;;;;1.80;1.67;;;32.80;35.90;;;;;;7377234;19;20093;-83
2022/06/23 16:41:13;;;;;;;6.28;1.58;;;32.70;36.10;;;;;;7373700;19;20019;-83
2022/06/23 16:44:15;;;;;;;4.32;1.40;;;33.00;36.20;;;;;;7371819;19;20050;-83
2022/06/23 16:50:24;;;;;;;6.75;1.50;;;33.40;35.30;;;;;;7372863;19;20038;-83
2022/06/23 16:53:53;;;;;;;3.72;1.50;;;33.20;35.20;;;;;;7373515;19;20018;-83
2022/06/23 17:03:41;;;;;;;3.60;1.75;;;32.60;36.90;;;;;;7373272;19;20046;-82
2022/06/23 17:06:13;;;;;;;3.67;1.83;;;32.40;37.20;;;;;;7372247;19;20020;-82
2022/06/23 17:09:14;;;;;;;2.90;1.60;;;32.10;37.80;;;;;;7372717;19;20022;-82
2022/06/23 17:11:55;;;;;;;2.33;1.60;;;31.90;38.50;;;;;;7373807;19;20014;-81
2022/06/23 17:14:29;;;;;;;5.25;1.92;;;31.70;38.40;;;;;;7375099;19;20015;-81
2022/06/23 17:17:06;;;;;;;3.58;1.40;;;31.60;38.60;;;;;;7333963;19;20019;-82
2022/06/23 17:19:40;;;;;;;1.90;1.50;;;31.50;38.90;;;;;;7375720;19;20433;-81
2022/06/23 17:22:19;;;;;;;3.92;1.80;;;31.40;39.00;;;;;;7400278;19;20065;-81
2022/06/23 17:24:56;;;;;;;2.25;1.67;;;31.30;39.00;;;;;;7381622;19;20010;-81
2022/06/23 17:27:35;;;;;;;2.47;1.63;;;31.20;40.40;;;;;;7377322;19;20600;-80
2022/06/23 17:30:12;;;;;;;4.50;1.70;;;31.00;39.70;;;;;;7375893;19;20018;-81
2022/06/23 17:32:57;;;;;;;2.10;1.58;;;30.80;39.70;;;;;;7376234;19;20026;-80
2022/06/23 17:35:35;;;;;;;2.97;1.80;;;30.70;40.00;;;;;;7374804;19;20015;-83
2022/06/23 17:43:45;;;;;;;2.13;1.60;;;30.60;40.60;;;;;;7375194;19;20018;-82
2022/06/23 17:43:48;;;;;;;2.88;1.67;;;30.40;41.90;;;;;;7337367;19;20050;-81
2022/06/23 17:46:23;;;;;;;2.15;1.80;;;30.40;43.00;;;;;;7399810;19;20439;-81
2022/06/23 17:49:01;;;;;;;2.47;1.48;;;30.40;43.70;;;;;;7375033;19;20026;-81
2022/06/23 17:52:43;;;;;;;5.78;2.10;;;30.30;44.10;;;;;;7373141;19;20018;-83
2022/06/23 17:55:17;;;;;;;1.80;1.63;;;30.40;43.90;;;;;;7375268;19;20102;-81
2022/06/23 17:57:56;;;;;;;2.92;1.75;;;30.40;44.90;;;;;;7371480;19;20014;-83
2022/06/23 18:04:23;;;;;;;3.38;1.85;;;30.40;45.80;;;;;;7376859;19;20022;-85
2022/06/23 18:10:15;;;;;;;;;;;30.60;43.60;;;;;;7394474;19;20018;-83
2022/06/23 18:12:51;;;;;;;6.72;6.03;;;30.80;43.10;;;;;;7369400;19;19961;-82
2022/06/23 18:15:34;;;;;;;4.60;3.42;;;30.70;43.40;;;;;;7371030;19;20014;-83
2022/06/23 18:18:15;;;;;;;6.25;2.58;;;30.70;44.30;;;;;;7375775;19;20015;-83
2022/06/23 18:21:25;;;;;;;9.75;2.95;;;30.70;45.10;;;;;;7328540;19;20006;-82
2022/06/23 18:24:28;;;;;;;3.55;1.80;;;30.60;45.60;;;;;;7408151;19;20042;-84
2022/06/23 18:27:11;;;;;;;4.35;2.05;;;30.50;45.50;;;;;;7375992;19;20312;-81
2022/06/23 18:30:17;;;;;;;11.73;2.47;;;30.40;45.70;;;;;;7373249;19;20018;-82
2022/06/23 18:59:56;;;;;;;2.33;1.60;;;29.10;48.80;;;;;;7376842;19;20026;-86
2022/06/23 19:02:31;;;;;;;2.58;1.73;;;28.90;48.90;;;;;;7340490;19;20026;-87
2022/06/23 19:05:07;;;;;;;3.35;1.73;;;28.80;48.50;;;;;;7373020;19;20011;-85
2022/06/23 19:07:43;;;;;;;4.03;1.80;;;28.80;48.80;;;;;;7373766;19;20127;-84
2022/06/23 19:10:38;;;;;;;5.00;1.83;;;28.70;49.00;;;;;;7394787;19;20031;-87
2022/06/23 19:13:34;;;;;;;7.32;1.75;;;28.60;49.50;;;;;;7373009;19;20006;-86
2022/06/23 19:16:19;;;;;;;5.65;1.50;;;28.50;49.40;;;;;;7376392;19;20018;-84
2022/06/23 19:19:11;;;;;;;3.03;1.80;;;28.50;49.00;;;;;;7381022;19;20025;-84
2022/06/23 19:21:53;;;;;;;3.10;1.80;;;28.40;49.10;;;;;;7374475;19;20460;-86
2022/06/23 19:24:46;;;;;;;8.23;1.80;;;28.30;49.00;;;;;;7372332;19;20039;-85
2022/06/23 19:27:23;;;;;;;4.97;1.60;;;28.30;49.30;;;;;;7369729;19;20019;-81
2022/06/23 19:30:03;;;;;;;4.57;1.58;;;28.20;49.10;;;;;;7366711;19;20139;-80
2022/06/23 19:32:43;;;;;;;89.50;78.82;;;28.10;48.80;;;;;;7369687;19;20023;-82
2022/06/23 19:35:12;;;;;;;368.75;307.70;;;28.10;49.30;;;;;;7380693;19;20015;-88
2022/06/23 19:37:55;;;;;;;54.90;40.97;;;28.10;49.10;;;;;;7380426;19;20014;-84
2022/06/23 19:40:54;;;;;;;14.10;8.55;;;28.00;49.70;;;;;;7400653;19;20022;-86
2022/06/23 19:43:39;;;;;;;4.50;3.15;;;28.00;49.70;;;;;;7279990;19;2004416;-87
2022/06/23 19:46:14;;;;;;;4.78;2.80;;;27.90;49.70;;;;;;7406350;19;20018;-87
2022/06/23 19:48:49;;;;;;;2.63;2.03;;;27.90;49.80;;;;;;7379275;19;20014;-86
2022/06/23 19:51:22;;;;;;;3.65;1.77;;;27.80;49.40;;;;;;7383123;19;20032;-87
2022/06/23 19:53:54;;;;;;;3.13;1.80;;;27.80;49.60;;;;;;7381900;19;20015;-87
2022/06/23 19:56:28;;;;;;;4.30;1.92;;;27.70;50.50;;;;;;7377298;19;20545;-86
2022/06/23 19:59:17;;;;;;;4.60;2.00;;;27.60;50.00;;;;;;7383458;19;20079;-87
2022/06/23 20:01:49;;;;;;;4.47;1.70;;;27.60;50.30;;;;;;7393606;19;20012;-89
2022/06/23 20:04:28;;;;;;;3.78;2.00;;;27.70;50.30;;;;;;7417379;19;20014;-88
2022/06/23 20:07:05;;;;;;;5.50;1.70;;;27.60;50.40;;;;;;7396754;19;20027;-89
2022/06/23 20:09:43;;;;;;;2.45;1.85;;;27.70;50.50;;;;;;7376900;19;20014;-89
2022/06/23 20:14:59;;;;;;;3.30;1.90;;;27.60;50.60;;;;;;7349304;19;20287;-86
2022/06/23 20:17:32;;;;;;;2.80;1.90;;;27.50;50.90;;;;;;7396265;19;20015;-89
2022/06/23 20:20:12;;;;;;;3.85;1.83;;;27.50;50.90;;;;;;7402278;19;20327;-90
2022/06/23 20:22:58;;;;;;;4.78;1.73;;;27.50;50.60;;;;;;7400511;19;20038;-89
2022/06/23 20:25:39;;;;;;;2.08;1.90;;;27.40;50.60;;;;;;7397132;19;20025;-87
2022/06/23 20:28:13;;;;;;;;;;;27.40;51.00;;;;;;7425061;19;20010;-90
2022/06/23 20:30:47;;;;;;;3.53;1.80;;;27.40;50.90;;;;;;7389022;19;19927;-88
2022/06/23 20:33:39;;;;;;;5.75;2.03;;;27.30;51.10;;;;;;7388400;19;20018;-88
2022/06/23 20:36:19;;;;;;;4.38;2.10;;;27.20;51.10;;;;;;7383120;19;20018;-89
2022/06/23 20:39:09;;;;;;;2.83;2.20;;;27.20;51.10;;;;;;7385581;19;20018;-88
2022/06/23 20:41:46;;;;;;;22.83;18.38;;;27.20;51.40;;;;;;7386822;19;20014;-85
2022/06/23 20:44:24;;;;;;;7.25;4.75;;;27.10;51.30;;;;;;7387427;19;20036;-87
2022/06/23 20:47:19;;;;;;;8.18;4.93;;;27.10;51.50;;;;;;7391021;19;20500;-88
2022/06/23 20:50:16;;;;;;;7.20;2.67;;;27.00;51.80;;;;;;7384948;19;20052;-87
2022/06/23 20:52:54;;;;;;;6.32;2.30;;;27.00;52.00;;;;;;7383836;19;20087;-87
2022/06/23 20:55:32;;;;;;;8.55;2.33;;;26.90;51.90;;;;;;7404395;19;20022;-88
2022/06/23 20:58:07;;;;;;;3.30;1.90;;;26.90;52.20;;;;;;7376942;19;20006;-89
2022/06/23 21:00:43;;;;;;;6.50;2.50;;;26.90;52.20;;;;;;7383929;19;20035;-89
2022/06/23 21:03:18;;;;;;;6.40;2.35;;;26.90;52.30;;;;;;7380217;19;20014;-90
2022/06/23 21:05:53;;;;;;;2.22;2.05;;;26.90;52.20;;;;;;7379716;19;20023;-88
2022/06/23 21:08:32;;;;;;;2.72;1.75;;;26.90;52.50;;;;;;7380377;19;20018;-89
2022/06/23 21:11:11;;;;;;;2.75;2.08;;;26.90;52.40;;;;;;7382419;19;20010;-89
2022/06/23 21:13:49;;;;;;;2.45;2.00;;;26.90;52.60;;;;;;7389052;19;20019;-89
2022/06/23 21:16:32;;;;;;;6.00;2.15;;;26.90;52.60;;;;;;7408068;19;20014;-87
2022/06/23 21:19:14;;;;;;;2.47;2.20;;;26.90;52.60;;;;;;7382660;19;20449;-88
2022/06/23 21:21:52;;;;;;;3.88;1.98;;;26.90;52.50;;;;;;7381217;19;20050;-84
2022/06/23 21:24:49;;;;;;;164.43;140.40;;;26.90;52.50;;;;;;7375939;19;20087;-87
2022/06/23 21:30:48;;;;;;;9.27;4.05;;;26.80;52.80;;;;;;7370670;19;20034;-78
2022/06/23 21:36:41;;;;;;;9.25;4.55;;;26.60;53.00;;;;;;7337415;19;20018;-83
2022/06/23 21:39:19;;;;;;;4.45;1.90;;;26.70;53.20;;;;;;7380118;19;20018;-87
2022/06/23 21:49:29;;;;;;;3.80;2.40;;;26.60;53.80;;;;;;7315474;19;20018;-84
2022/06/23 21:52:32;;;;;;;3.30;2.72;;;26.60;53.20;;;;;;7393463;19;20014;-84
2022/06/23 21:55:30;;;;;;;7.50;2.40;;;26.60;53.20;;;;;;7371054;19;20041;-84
2022/06/23 21:58:37;;;;;;;5.72;2.50;;;26.60;53.20;;;;;;7374143;19;20520;-84
2022/06/23 22:12:46;;;;;;;4.32;2.38;;;26.30;53.80;;;;;;7331402;19;20031;-84
2022/06/23 22:19:04;;;;;;;6.53;2.40;;;26.30;53.80;;;;;;7371553;19;20017;-84
2022/06/23 22:21:43;;;;;;;2.75;2.05;;;26.30;54.00;;;;;;7373225;19;20034;-84
2022/06/23 22:27:41;;;;;;;5.20;2.75;;;26.30;54.00;;;;;;7372510;19;20510;-84
2022/06/23 22:30:47;;;;;;;4.28;2.90;;;26.30;54.30;;;;;;7368384;19;20054;-84
2022/06/23 22:33:48;;;;;;;3.53;2.20;;;26.30;54.10;;;;;;7370906;19;20014;-83
2022/06/23 22:36:49;;;;;;;4.63;2.30;;;26.30;54.20;;;;;;7372518;19;20029;-83
2022/06/23 22:39:47;;;;;;;3.10;2.22;;;26.40;54.10;;;;;;7349941;19;20086;-84
2022/06/23 22:42:37;;;;;;;5.82;2.40;;;26.40;54.20;;;;;;7384243;19;20348;-83
